Time;durP1;ratioP1;P1;durP2;ratioP2;P2;SDS_P1;SDS_P2;PMS_P1;PMS_P2;Temp;Humidity;BMP_temperature;BMP_pressure;BME280_temperature;BME280_humidity;BME280_pressure;Samples;Min_cycle;Max_cycle;Signal;HPM_P1;HPM_P2
2021/08/03 00:00:35;;;;;;;8.80;5.10;;;17.00;97.30;;;;;;4974476;28;20434;-83
2021/08/03 00:03:08;;;;;;;9.83;4.87;;;17.00;97.30;;;;;;4975984;28;20174;-84
2021/08/03 00:05:38;;;;;;;9.40;5.00;;;17.00;97.30;;;;;;4976241;28;20481;-83
2021/08/03 00:08:10;;;;;;;7.30;4.93;;;17.00;97.30;;;;;;4976705;28;20430;-83
2021/08/03 00:10:36;;;;;;;7.83;5.53;;;17.00;97.30;;;;;;4977672;28;20452;-83
2021/08/03 00:13:02;;;;;;;7.90;4.90;;;16.90;97.30;;;;;;4976086;28;20440;-84
2021/08/03 00:15:29;;;;;;;8.27;4.77;;;16.90;97.30;;;;;;4991633;28;20425;-83
2021/08/03 00:17:55;;;;;;;6.17;4.30;;;16.90;97.30;;;;;;4992567;28;20468;-84
2021/08/03 00:20:24;;;;;;;9.30;5.07;;;16.90;97.30;;;;;;4995356;28;20807;-84
2021/08/03 00:22:51;;;;;;;9.40;4.77;;;16.90;97.30;;;;;;4995370;28;20448;-84
2021/08/03 00:25:17;;;;;;;7.17;4.20;;;16.90;97.30;;;;;;4994665;28;20425;-82
2021/08/03 00:27:43;;;;;;;10.10;5.07;;;16.90;97.30;;;;;;4993864;28;20962;-82
2021/08/03 00:30:09;;;;;;;11.63;4.77;;;16.80;97.30;;;;;;4994648;28;20449;-82
2021/08/03 00:32:35;;;;;;;7.70;4.90;;;16.80;97.30;;;;;;4994076;28;20253;-82
2021/08/03 00:35:01;;;;;;;8.67;5.07;;;16.80;97.30;;;;;;4995499;28;20558;-82
2021/08/03 00:37:27;;;;;;;11.00;5.90;;;16.80;97.30;;;;;;4994245;28;20507;-82
2021/08/03 00:39:52;;;;;;;7.70;4.83;;;16.80;97.30;;;;;;4994940;28;20194;-82
2021/08/03 00:42:20;;;;;;;7.73;4.90;;;16.80;97.30;;;;;;4997065;28;20641;-82
2021/08/03 00:44:49;;;;;;;6.97;4.97;;;16.70;97.30;;;;;;4996866;28;20178;-82
2021/08/03 00:47:16;;;;;;;9.00;5.20;;;16.70;97.30;;;;;;4995326;28;20424;-82
2021/08/03 00:49:43;;;;;;;7.80;4.70;;;16.70;97.30;;;;;;4996193;28;20447;-82
2021/08/03 00:52:10;;;;;;;5.70;4.37;;;16.70;97.30;;;;;;4995429;28;20436;-82
2021/08/03 00:54:36;;;;;;;9.47;4.90;;;16.70;97.30;;;;;;4995469;28;20414;-84
2021/08/03 00:57:02;;;;;;;9.13;4.90;;;16.60;97.30;;;;;;4994848;28;20417;-83
2021/08/03 00:59:28;;;;;;;9.87;5.67;;;16.60;97.30;;;;;;4994929;28;20417;-83
2021/08/03 01:01:54;;;;;;;7.77;4.87;;;16.60;97.30;;;;;;4994251;28;20424;-84
2021/08/03 01:04:19;;;;;;;7.40;4.93;;;16.60;97.30;;;;;;4995400;28;20201;-83
2021/08/03 01:07:23;;;;;;;8.47;4.60;;;16.50;97.30;;;;;;4993906;28;20920;-83
2021/08/03 01:10:01;;;;;;;6.90;4.63;;;16.50;97.30;;;;;;4995313;28;20190;-83
2021/08/03 01:12:51;;;;;;;9.87;4.93;;;16.50;97.30;;;;;;4995730;28;20833;-83
2021/08/03 01:15:53;;;;;;;7.80;4.77;;;16.50;97.30;;;;;;4997185;28;20397;-83
2021/08/03 01:18:56;;;;;;;9.23;5.17;;;16.50;97.30;;;;;;4976576;28;20544;-83
2021/08/03 01:21:51;;;;;;;8.73;4.20;;;16.40;97.30;;;;;;4991428;28;20996;-83
2021/08/03 01:24:16;;;;;;;7.17;4.37;;;16.40;97.30;;;;;;4976123;28;20502;-83
2021/08/03 01:27:16;;;;;;;8.87;4.73;;;16.40;97.30;;;;;;4992622;28;20902;-82
2021/08/03 01:29:44;;;;;;;6.33;4.13;;;16.40;97.30;;;;;;4975807;28;20256;-83
2021/08/03 01:32:11;;;;;;;8.43;4.80;;;16.40;97.30;;;;;;4977322;28;20468;-83
2021/08/03 01:34:44;;;;;;;7.20;4.90;;;16.40;97.30;;;;;;4974923;28;20418;-83
2021/08/03 01:37:14;;;;;;;11.23;5.20;;;16.30;97.30;;;;;;4974515;28;20465;-83
2021/08/03 01:39:45;;;;;;;6.93;4.63;;;16.30;97.30;;;;;;4975308;28;20441;-82
2021/08/03 01:42:13;;;;;;;11.43;5.33;;;16.40;97.30;;;;;;4976346;28;20437;-83
2021/08/03 01:44:41;;;;;;;10.00;4.63;;;16.30;97.30;;;;;;4974858;28;20883;-82
2021/08/03 01:47:08;;;;;;;7.43;4.60;;;16.30;97.30;;;;;;4975681;28;20484;-84
2021/08/03 01:49:36;;;;;;;5.70;4.20;;;16.30;97.30;;;;;;4977041;28;20405;-83
2021/08/03 01:52:05;;;;;;;8.63;5.40;;;16.30;97.30;;;;;;4977264;28;20629;-83
2021/08/03 01:54:31;;;;;;;9.43;4.90;;;16.20;97.30;;;;;;4975796;28;20422;-83
2021/08/03 01:56:56;;;;;;;7.70;5.13;;;16.20;97.30;;;;;;4975732;28;20418;-84
2021/08/03 01:59:23;;;;;;;12.50;6.07;;;16.20;97.30;;;;;;4976481;28;20427;-83
2021/08/03 02:01:51;;;;;;;7.17;4.43;;;16.20;97.30;;;;;;4980364;28;20585;-83
2021/08/03 02:04:18;;;;;;;8.80;5.10;;;16.20;97.30;;;;;;4979067;28;20425;-82
2021/08/03 02:06:46;;;;;;;8.37;4.50;;;16.20;97.30;;;;;;4979042;28;20428;-83
2021/08/03 02:09:12;;;;;;;9.93;5.90;;;16.20;97.30;;;;;;4978283;28;20482;-83
2021/08/03 02:11:39;;;;;;;7.43;4.77;;;16.10;97.30;;;;;;4979231;28;20429;-83
2021/08/03 02:14:05;;;;;;;7.00;5.20;;;16.10;97.30;;;;;;4978473;28;20441;-83
2021/08/03 02:16:32;;;;;;;8.60;5.37;;;16.10;97.30;;;;;;4985104;28;20409;-83
2021/08/03 02:18:58;;;;;;;8.10;5.00;;;16.10;97.30;;;;;;4998465;28;20514;-83
2021/08/03 02:23:50;;;;;;;8.90;4.80;;;16.10;97.30;;;;;;5039114;23;20739;-83
2021/08/03 02:26:16;;;;;;;9.27;4.93;;;16.10;97.30;;;;;;5013179;28;20182;-83
2021/08/03 02:28:42;;;;;;;7.80;5.03;;;16.10;97.30;;;;;;5011823;28;20430;-83
2021/08/03 02:31:12;;;;;;;7.43;4.70;;;16.10;97.30;;;;;;5012908;28;20684;-83
2021/08/03 02:33:44;;;;;;;8.07;4.70;;;16.10;97.30;;;;;;5012420;28;20181;-84
2021/08/03 02:36:16;;;;;;;6.60;4.90;;;16.10;97.30;;;;;;5012303;28;20413;-84
2021/08/03 02:38:45;;;;;;;6.67;4.60;;;16.20;97.30;;;;;;5012469;28;20614;-84
2021/08/03 02:41:12;;;;;;;12.03;5.63;;;16.20;97.30;;;;;;5014130;28;20436;-84
2021/08/03 02:43:39;;;;;;;8.90;5.03;;;16.20;97.30;;;;;;5014304;28;20515;-84
2021/08/03 02:46:06;;;;;;;7.80;5.00;;;16.20;97.30;;;;;;5013240;28;20456;-84
2021/08/03 02:48:33;;;;;;;8.10;5.33;;;16.30;97.30;;;;;;5014083;28;20796;-87
2021/08/03 02:51:00;;;;;;;10.43;4.93;;;16.30;97.30;;;;;;5014712;28;20443;-86
2021/08/03 02:53:28;;;;;;;8.30;4.77;;;16.30;97.30;;;;;;5013811;28;20443;-86
2021/08/03 02:55:59;;;;;;;7.13;4.60;;;16.40;97.30;;;;;;5014145;28;20412;-86
2021/08/03 02:58:32;;;;;;;9.80;4.20;;;16.40;97.30;;;;;;5013932;28;20551;-87
2021/08/03 03:01:00;;;;;;;6.87;4.37;;;16.40;97.30;;;;;;5014150;28;20426;-86
2021/08/03 03:03:27;;;;;;;7.50;4.60;;;16.30;97.30;;;;;;5013408;28;20788;-86
2021/08/03 03:06:06;;;;;;;6.27;4.17;;;16.30;97.30;;;;;;5013456;28;21002;-86
2021/08/03 03:08:34;;;;;;;7.60;4.40;;;16.30;97.30;;;;;;5015015;28;20412;-86
2021/08/03 03:11:06;;;;;;;9.23;4.47;;;16.30;97.30;;;;;;5013237;28;20424;-86
2021/08/03 03:13:57;;;;;;;6.27;4.00;;;16.30;97.30;;;;;;5013741;28;20424;-84
2021/08/03 03:16:24;;;;;;;6.80;4.10;;;16.20;97.30;;;;;;5012998;28;20420;-83
2021/08/03 03:18:50;;;;;;;7.47;4.80;;;16.20;97.30;;;;;;5013482;28;20569;-86
2021/08/03 03:21:22;;;;;;;6.83;4.37;;;16.10;97.30;;;;;;5013319;28;20567;-85
2021/08/03 03:23:53;;;;;;;7.37;4.20;;;16.10;97.30;;;;;;5012785;28;20464;-85
2021/08/03 03:26:23;;;;;;;10.10;4.93;;;16.10;97.30;;;;;;5013342;28;20447;-84
2021/08/03 03:28:50;;;;;;;6.93;4.50;;;16.00;97.30;;;;;;5013149;28;20499;-84
2021/08/03 03:31:17;;;;;;;8.50;4.60;;;16.00;97.30;;;;;;5013242;28;20526;-85
2021/08/03 03:33:43;;;;;;;7.43;5.43;;;16.00;97.30;;;;;;5012942;28;20420;-84
2021/08/03 03:36:10;;;;;;;8.27;4.53;;;16.00;97.30;;;;;;5013660;28;20906;-85
2021/08/03 03:38:38;;;;;;;6.60;5.00;;;15.90;97.30;;;;;;5014038;28;20460;-84
2021/08/03 03:41:05;;;;;;;7.37;4.80;;;15.90;97.30;;;;;;5016687;28;20412;-84
2021/08/03 03:43:31;;;;;;;12.83;5.03;;;15.90;97.30;;;;;;5017264;28;20419;-85
2021/08/03 03:46:04;;;;;;;6.93;4.83;;;15.90;97.30;;;;;;5012555;28;20420;-85
2021/08/03 03:48:32;;;;;;;8.53;4.60;;;15.90;97.30;;;;;;5012797;28;20177;-84
2021/08/03 03:51:01;;;;;;;7.30;4.80;;;15.90;97.30;;;;;;5012896;28;20412;-84
2021/08/03 03:53:43;;;;;;;8.20;4.90;;;15.90;97.30;;;;;;5012732;28;20419;-84
2021/08/03 03:56:09;;;;;;;9.47;4.77;;;15.80;97.30;;;;;;5012659;28;20416;-85
2021/08/03 03:58:39;;;;;;;15.07;5.00;;;15.80;97.30;;;;;;5012860;28;20484;-85
2021/08/03 04:01:05;;;;;;;5.80;4.23;;;15.80;97.30;;;;;;5013003;28;20519;-84
2021/08/03 04:03:35;;;;;;;9.13;5.13;;;15.80;97.30;;;;;;5012481;28;20452;-85
2021/08/03 04:06:01;;;;;;;12.27;5.50;;;15.80;97.30;;;;;;5013170;28;20242;-84
2021/08/03 04:08:29;;;;;;;9.30;5.20;;;15.80;97.30;;;;;;4996125;28;20458;-85
2021/08/03 04:11:01;;;;;;;10.30;4.53;;;15.80;97.30;;;;;;5012274;28;20748;-85
2021/08/03 04:13:27;;;;;;;7.50;4.80;;;15.80;97.30;;;;;;5012585;28;20416;-85
2021/08/03 04:15:52;;;;;;;8.73;4.93;;;15.80;97.30;;;;;;5011975;28;20507;-84
2021/08/03 04:18:18;;;;;;;10.23;4.93;;;15.80;97.30;;;;;;5012084;28;20208;-85
2021/08/03 04:20:43;;;;;;;12.40;5.23;;;15.70;97.30;;;;;;5012878;28;20169;-85
2021/08/03 04:23:09;;;;;;;9.07;5.40;;;15.80;97.30;;;;;;5011930;28;20220;-84
2021/08/03 04:25:34;;;;;;;12.23;6.00;;;15.80;97.30;;;;;;5011755;28;20228;-85
2021/08/03 04:28:01;;;;;;;11.30;5.80;;;15.90;97.30;;;;;;5012252;28;20184;-84
2021/08/03 04:30:26;;;;;;;10.00;6.57;;;15.90;97.30;;;;;;5013447;28;20185;-84
2021/08/03 04:32:52;;;;;;;12.53;7.70;;;16.00;97.30;;;;;;5012426;28;20455;-85
2021/08/03 04:35:18;;;;;;;11.03;7.40;;;16.00;97.30;;;;;;5012655;28;20203;-85
2021/08/03 04:37:46;;;;;;;11.20;7.20;;;16.00;97.30;;;;;;5012085;28;20209;-85
2021/08/03 04:40:14;;;;;;;8.93;5.23;;;16.10;97.30;;;;;;5012940;28;20220;-85
2021/08/03 04:42:40;;;;;;;9.90;5.40;;;16.10;97.30;;;;;;5011639;28;20451;-85
2021/08/03 04:45:07;;;;;;;10.47;5.27;;;16.10;97.30;;;;;;5011634;28;20412;-85
2021/08/03 04:47:33;;;;;;;9.90;5.77;;;16.00;97.30;;;;;;5010881;28;20181;-85
2021/08/03 04:49:58;;;;;;;8.80;5.60;;;16.00;97.30;;;;;;5011814;28;20780;-85
2021/08/03 04:52:24;;;;;;;8.80;5.70;;;16.10;97.30;;;;;;5006232;28;20201;-85
2021/08/03 04:54:50;;;;;;;15.03;7.27;;;16.10;97.30;;;;;;5000604;28;20213;-85
2021/08/03 04:57:15;;;;;;;9.73;5.70;;;16.10;97.30;;;;;;5000635;28;20229;-85
2021/08/03 04:59:41;;;;;;;10.63;6.23;;;16.10;97.30;;;;;;5006683;28;20257;-85
2021/08/03 05:02:06;;;;;;;11.30;5.93;;;16.10;97.30;;;;;;5007550;28;20217;-85
2021/08/03 05:04:34;;;;;;;9.33;6.27;;;16.10;97.30;;;;;;4996481;28;20173;-85
2021/08/03 05:07:06;;;;;;;9.50;6.80;;;16.10;97.30;;;;;;5003586;28;20698;-85
2021/08/03 05:09:31;;;;;;;13.00;6.13;;;16.20;97.30;;;;;;5003102;28;20419;-85
2021/08/03 05:11:57;;;;;;;13.80;6.37;;;16.20;97.30;;;;;;5003441;28;20946;-85
2021/08/03 05:14:23;;;;;;;10.27;6.70;;;16.20;97.30;;;;;;5001579;28;20174;-85
2021/08/03 05:16:48;;;;;;;12.47;6.40;;;16.20;97.30;;;;;;5003279;28;20177;-85
2021/08/03 05:19:14;;;;;;;11.00;6.60;;;16.20;97.30;;;;;;4998706;28;20209;-85
2021/08/03 05:21:40;;;;;;;9.33;5.20;;;16.20;97.30;;;;;;5003104;28;20573;-85
2021/08/03 05:24:05;;;;;;;11.00;6.00;;;16.30;97.30;;;;;;5006576;28;20205;-85
2021/08/03 05:26:31;;;;;;;12.10;6.50;;;16.30;97.30;;;;;;5001151;28;20697;-85
2021/08/03 05:28:57;;;;;;;16.97;7.93;;;16.30;97.30;;;;;;4991975;28;20178;-85
2021/08/03 05:31:23;;;;;;;15.70;7.83;;;16.30;97.30;;;;;;4991951;28;20229;-85
2021/08/03 05:33:49;;;;;;;12.80;7.47;;;16.30;97.30;;;;;;4993240;28;20439;-85
2021/08/03 05:36:14;;;;;;;16.57;8.17;;;16.40;97.30;;;;;;4995092;28;20271;-85
2021/08/03 05:38:40;;;;;;;12.53;7.00;;;16.40;97.30;;;;;;4995446;28;20216;-85
2021/08/03 05:41:05;;;;;;;14.50;7.40;;;16.30;97.30;;;;;;4995679;28;20408;-85
2021/08/03 05:43:31;;;;;;;20.40;7.83;;;16.40;97.30;;;;;;4995398;28;20594;-85
2021/08/03 05:45:57;;;;;;;14.10;7.50;;;16.40;97.30;;;;;;4996210;28;20258;-85
2021/08/03 05:48:22;;;;;;;15.27;7.93;;;16.40;97.30;;;;;;4995738;28;20186;-85
2021/08/03 05:50:48;;;;;;;12.00;7.30;;;16.30;97.30;;;;;;4995167;28;20185;-85
2021/08/03 05:53:13;;;;;;;18.80;8.60;;;16.40;97.30;;;;;;4995694;28;20619;-85
2021/08/03 05:55:40;;;;;;;15.67;8.07;;;16.50;97.30;;;;;;4995468;28;20186;-85
2021/08/03 05:58:06;;;;;;;16.73;8.67;;;16.50;97.30;;;;;;4996095;28;20206;-85
2021/08/03 06:00:32;;;;;;;12.43;6.87;;;16.60;97.30;;;;;;4995442;28;20413;-85
2021/08/03 06:02:58;;;;;;;12.20;7.20;;;16.60;97.30;;;;;;4996625;28;20190;-85
2021/08/03 06:05:23;;;;;;;12.00;7.30;;;16.60;97.30;;;;;;4995486;28;20424;-85
2021/08/03 06:07:51;;;;;;;9.73;6.23;;;16.70;97.30;;;;;;4995150;28;20192;-85
2021/08/03 06:10:17;;;;;;;10.40;7.00;;;16.70;97.30;;;;;;4994901;28;20181;-84
2021/08/03 06:12:47;;;;;;;10.80;5.83;;;16.80;97.30;;;;;;4995453;28;20445;-85
2021/08/03 06:15:13;;;;;;;12.23;6.10;;;16.80;97.30;;;;;;4994714;28;20276;-85
2021/08/03 06:17:49;;;;;;;11.87;6.30;;;16.80;97.30;;;;;;5009536;28;20587;-85
2021/08/03 06:20:15;;;;;;;12.43;6.43;;;16.80;97.30;;;;;;5015034;28;20187;-85
2021/08/03 06:22:41;;;;;;;10.70;6.40;;;16.80;97.30;;;;;;5014008;28;20551;-85
2021/08/03 06:25:14;;;;;;;14.07;6.40;;;16.90;97.30;;;;;;5014616;28;20340;-85
2021/08/03 06:27:41;;;;;;;14.10;7.00;;;17.00;97.30;;;;;;5014167;28;20946;-85
2021/08/03 06:30:07;;;;;;;9.50;5.60;;;17.10;97.30;;;;;;5014189;28;20451;-85
2021/08/03 06:32:34;;;;;;;8.40;5.37;;;17.10;97.30;;;;;;5014242;28;20510;-85
2021/08/03 06:35:00;;;;;;;8.27;5.07;;;17.20;97.30;;;;;;5014578;28;20914;-85
2021/08/03 06:37:25;;;;;;;12.93;5.13;;;17.20;97.30;;;;;;5014254;28;20487;-85
2021/08/03 06:39:51;;;;;;;9.73;5.20;;;17.30;97.30;;;;;;5014099;28;20173;-85
2021/08/03 06:42:38;;;;;;;8.67;5.17;;;17.30;97.30;;;;;;5014405;28;20197;-85
2021/08/03 06:45:06;;;;;;;8.67;5.03;;;17.30;97.30;;;;;;5015230;28;20181;-85
2021/08/03 06:48:10;;;;;;;7.73;5.03;;;17.30;97.30;;;;;;5013582;28;20785;-85
2021/08/03 06:50:41;;;;;;;7.70;4.60;;;17.40;97.30;;;;;;5014639;28;20428;-85
2021/08/03 06:53:09;;;;;;;7.37;4.43;;;17.40;97.30;;;;;;5014394;28;20440;-85
2021/08/03 06:55:39;;;;;;;8.57;4.77;;;17.50;97.30;;;;;;5013967;28;20423;-85
2021/08/03 06:58:06;;;;;;;9.20;4.60;;;17.60;97.30;;;;;;5013580;28;20494;-85
2021/08/03 07:00:37;;;;;;;9.60;5.07;;;17.70;97.30;;;;;;5014463;28;20771;-85
2021/08/03 07:03:06;;;;;;;10.00;4.37;;;17.70;97.30;;;;;;5014343;28;20440;-85
2021/08/03 07:05:33;;;;;;;7.00;4.57;;;17.90;97.30;;;;;;5013962;28;20416;-85
2021/08/03 07:08:00;;;;;;;6.60;4.10;;;18.00;97.30;;;;;;5013763;28;20513;-85
2021/08/03 07:10:27;;;;;;;7.10;4.53;;;18.00;97.30;;;;;;5013441;28;20429;-85
2021/08/03 07:12:56;;;;;;;6.60;4.60;;;18.10;97.30;;;;;;5013955;28;20447;-85
2021/08/03 07:15:26;;;;;;;8.53;4.80;;;18.10;97.30;;;;;;5014328;28;20423;-85
2021/08/03 07:17:52;;;;;;;9.00;5.20;;;18.20;97.30;;;;;;5013739;28;20459;-85
2021/08/03 07:20:20;;;;;;;8.23;4.83;;;18.30;97.30;;;;;;5013879;28;20418;-85
2021/08/03 07:22:47;;;;;;;8.07;4.27;;;18.30;97.30;;;;;;5012652;28;20534;-84
2021/08/03 07:25:13;;;;;;;7.17;4.40;;;18.40;97.30;;;;;;5013674;28;20412;-85
2021/08/03 07:27:40;;;;;;;9.87;5.73;;;18.40;97.30;;;;;;5012772;28;20428;-85
2021/08/03 07:30:09;;;;;;;8.50;4.70;;;18.50;97.30;;;;;;5013514;28;20828;-85
2021/08/03 07:32:36;;;;;;;7.80;5.00;;;18.60;97.30;;;;;;4996797;28;20878;-85
2021/08/03 07:35:04;;;;;;;8.13;4.90;;;18.70;97.30;;;;;;5014008;28;20420;-84
2021/08/03 07:37:30;;;;;;;8.43;4.33;;;18.80;97.30;;;;;;5013224;28;20467;-85
2021/08/03 07:39:57;;;;;;;6.90;4.63;;;18.80;97.30;;;;;;5012932;28;20503;-85
2021/08/03 07:42:23;;;;;;;7.07;5.17;;;18.80;97.30;;;;;;5013070;28;20444;-84
2021/08/03 07:44:48;;;;;;;7.30;4.70;;;18.80;97.30;;;;;;5013232;28;20417;-84
2021/08/03 07:47:14;;;;;;;9.13;4.40;;;18.80;97.30;;;;;;5013052;28;20181;-84
2021/08/03 07:49:40;;;;;;;7.30;4.27;;;18.80;97.30;;;;;;5012323;28;20185;-85
2021/08/03 07:52:07;;;;;;;4.50;3.23;;;18.80;97.30;;;;;;5013027;28;20201;-85
2021/08/03 07:54:33;;;;;;;7.20;5.00;;;18.90;97.30;;;;;;5013145;28;20536;-84
2021/08/03 07:56:59;;;;;;;9.30;6.83;;;19.10;97.30;;;;;;5012195;28;20428;-84
2021/08/03 07:59:24;;;;;;;9.70;6.30;;;19.30;97.30;;;;;;5010600;28;20430;-85
2021/08/03 08:01:50;;;;;;;10.60;6.13;;;19.50;97.30;;;;;;5012922;28;20556;-84
2021/08/03 08:04:16;;;;;;;9.50;6.13;;;19.60;97.30;;;;;;5012539;28;20211;-83
2021/08/03 08:06:41;;;;;;;9.90;6.17;;;19.70;97.30;;;;;;5012637;28;20208;-84
2021/08/03 08:09:07;;;;;;;8.90;5.97;;;19.80;97.30;;;;;;5012822;28;20214;-85
2021/08/03 08:11:33;;;;;;;9.50;5.70;;;19.80;97.30;;;;;;5012676;28;20201;-84
2021/08/03 08:13:58;;;;;;;7.60;5.13;;;19.80;97.30;;;;;;5012093;28;20176;-85
2021/08/03 08:16:24;;;;;;;7.13;4.93;;;19.90;97.30;;;;;;5007513;28;20675;-85
2021/08/03 08:18:50;;;;;;;8.77;5.10;;;19.80;97.30;;;;;;4994041;28;20699;-85
2021/08/03 08:21:15;;;;;;;9.27;5.67;;;19.90;97.30;;;;;;5011105;28;20201;-84
2021/08/03 08:23:41;;;;;;;8.67;5.10;;;20.00;97.30;;;;;;5052529;23;20608;-82
2021/08/03 08:26:06;;;;;;;11.20;6.90;;;20.10;97.30;;;;;;5053758;28;20175;-82
2021/08/03 08:28:32;;;;;;;13.87;7.20;;;20.10;97.30;;;;;;5037126;28;20187;-82
2021/08/03 08:30:58;;;;;;;12.70;7.57;;;20.10;97.30;;;;;;5033734;28;20184;-82
2021/08/03 08:33:23;;;;;;;16.83;9.47;;;20.10;97.30;;;;;;5033747;28;20177;-81
2021/08/03 08:35:49;;;;;;;12.13;7.90;;;20.00;97.00;;;;;;5033988;28;20271;-82
2021/08/03 08:38:15;;;;;;;14.73;9.30;;;20.00;97.30;;;;;;5034393;28;20212;-81
2021/08/03 08:40:42;;;;;;;14.60;7.07;;;20.00;97.30;;;;;;5044504;28;20595;-82
2021/08/03 08:43:10;;;;;;;7.90;5.60;;;20.00;97.30;;;;;;5052363;28;20192;-82
2021/08/03 08:45:36;;;;;;;10.07;5.80;;;20.10;97.30;;;;;;5049669;28;20545;-82
2021/08/03 08:48:03;;;;;;;9.70;5.80;;;20.20;97.20;;;;;;5042639;28;20451;-82
2021/08/03 08:50:29;;;;;;;7.73;5.40;;;20.30;96.80;;;;;;5058211;28;20489;-82
2021/08/03 08:52:56;;;;;;;7.63;5.50;;;20.20;96.00;;;;;;5034041;28;20454;-82
2021/08/03 08:55:23;;;;;;;6.80;5.03;;;20.30;96.90;;;;;;5033465;28;20184;-82
2021/08/03 08:57:51;;;;;;;10.13;6.40;;;20.40;97.30;;;;;;5032992;28;20470;-82
2021/08/03 09:00:17;;;;;;;8.03;5.60;;;20.50;96.50;;;;;;5045744;28;20425;-83
2021/08/03 09:02:45;;;;;;;5.33;4.30;;;20.50;96.90;;;;;;5040424;28;21050;-83
2021/08/03 09:05:13;;;;;;;6.87;4.57;;;20.60;97.20;;;;;;5034293;28;20427;-83
2021/08/03 09:07:48;;;;;;;6.70;4.20;;;20.80;97.30;;;;;;5032399;28;20801;-82
2021/08/03 09:10:28;;;;;;;5.70;4.20;;;20.90;96.90;;;;;;5036332;28;20429;-82
2021/08/03 09:13:11;;;;;;;7.60;5.00;;;21.00;96.40;;;;;;5037131;28;20450;-82
2021/08/03 09:15:40;;;;;;;8.23;5.20;;;20.90;94.70;;;;;;5036139;28;20431;-82
2021/08/03 09:18:10;;;;;;;9.90;4.73;;;21.00;95.20;;;;;;5036169;28;20717;-84
2021/08/03 09:20:37;;;;;;;6.03;4.40;;;21.00;93.80;;;;;;5044759;28;20974;-83
2021/08/03 09:23:03;;;;;;;8.27;5.20;;;21.00;95.10;;;;;;5036467;28;20470;-82
2021/08/03 09:25:29;;;;;;;8.30;4.53;;;21.10;93.40;;;;;;5036795;28;20490;-83
2021/08/03 09:28:01;;;;;;;5.20;4.20;;;21.10;94.00;;;;;;5040395;28;20426;-82
2021/08/03 09:30:38;;;;;;;5.30;4.07;;;21.10;94.30;;;;;;5055725;28;20180;-82
2021/08/03 09:33:05;;;;;;;8.43;3.77;;;21.20;94.10;;;;;;5057929;28;20811;-83
2021/08/03 09:35:32;;;;;;;4.93;3.47;;;21.30;93.00;;;;;;5041435;28;20431;-82
2021/08/03 09:37:58;;;;;;;4.27;3.40;;;21.40;93.10;;;;;;5045605;28;20457;-82
2021/08/03 09:40:34;;;;;;;4.90;4.00;;;21.60;93.10;;;;;;5057447;28;20422;-83
2021/08/03 09:43:05;;;;;;;8.23;4.70;;;21.70;92.30;;;;;;5057094;28;20449;-82
2021/08/03 09:45:53;;;;;;;7.73;3.90;;;21.90;92.50;;;;;;5046902;28;20438;-82
2021/08/03 09:48:21;;;;;;;6.93;4.60;;;21.90;91.60;;;;;;5043542;28;20430;-83
2021/08/03 09:50:51;;;;;;;4.97;3.40;;;22.00;92.30;;;;;;5049016;28;20978;-82
2021/08/03 09:53:52;;;;;;;4.80;2.90;;;22.00;91.20;;;;;;5056864;28;20422;-82
2021/08/03 09:56:18;;;;;;;5.50;3.80;;;21.90;90.10;;;;;;5041869;28;20440;-82
2021/08/03 09:59:02;;;;;;;5.77;3.53;;;21.70;89.00;;;;;;5036558;28;20467;-82
2021/08/03 10:01:35;;;;;;;4.43;3.67;;;21.70;90.00;;;;;;5041734;28;20458;-83
2021/08/03 10:04:06;;;;;;;5.27;3.40;;;21.80;89.20;;;;;;5036491;28;20435;-82
2021/08/03 10:06:33;;;;;;;3.90;3.40;;;21.90;89.20;;;;;;5051981;28;20415;-82
2021/08/03 10:08:59;;;;;;;4.33;3.70;;;22.00;89.70;;;;;;5053637;28;20845;-82
2021/08/03 10:11:25;;;;;;;4.10;3.17;;;22.00;87.60;;;;;;5049094;28;20434;-82
2021/08/03 10:13:52;;;;;;;5.57;3.27;;;21.70;87.80;;;;;;5042348;28;21063;-81
2021/08/03 10:16:18;;;;;;;9.00;4.07;;;21.60;88.00;;;;;;5044560;28;20423;-81
2021/08/03 10:18:46;;;;;;;5.80;3.47;;;21.50;88.60;;;;;;5054615;28;20465;-82
2021/08/03 10:21:36;;;;;;;4.00;3.53;;;21.60;90.10;;;;;;5058859;28;20926;-82
2021/08/03 10:24:17;;;;;;;4.70;3.20;;;21.70;88.70;;;;;;5039882;28;20479;-81
2021/08/03 10:27:10;;;;;;;5.00;3.20;;;21.80;88.50;;;;;;5058463;28;20491;-82
2021/08/03 10:29:45;;;;;;;9.73;3.37;;;21.90;88.50;;;;;;5053678;28;20510;-82
2021/08/03 10:32:45;;;;;;;5.57;3.10;;;21.80;88.40;;;;;;5056941;28;20457;-82
2021/08/03 10:35:13;;;;;;;4.17;3.60;;;21.60;88.10;;;;;;5048878;28;20548;-81
2021/08/03 10:37:57;;;;;;;6.77;3.97;;;21.60;89.20;;;;;;5057920;28;20453;-82
2021/08/03 10:40:48;;;;;;;4.43;3.50;;;21.60;89.90;;;;;;5058580;28;20712;-82
2021/08/03 10:43:25;;;;;;;5.53;4.03;;;21.60;89.30;;;;;;5041510;28;20435;-84
2021/08/03 10:46:06;;;;;;;4.50;3.63;;;21.60;88.50;;;;;;5042484;28;20429;-81
2021/08/03 10:48:38;;;;;;;3.73;3.10;;;21.70;90.70;;;;;;5057827;28;20493;-81
2021/08/03 10:51:12;;;;;;;5.10;3.60;;;21.90;90.40;;;;;;5037447;28;20450;-81
2021/08/03 10:54:00;;;;;;;4.33;3.57;;;22.00;89.20;;;;;;5038986;28;20429;-81
2021/08/03 10:56:27;;;;;;;4.70;3.63;;;21.90;87.50;;;;;;5038589;28;20430;-81
2021/08/03 10:59:34;;;;;;;5.20;3.40;;;21.90;88.90;;;;;;5037973;28;20451;-81
2021/08/03 11:02:01;;;;;;;4.60;3.37;;;21.90;89.90;;;;;;5057795;28;20530;-81
2021/08/03 11:04:42;;;;;;;4.03;2.90;;;21.80;88.50;;;;;;5045515;28;20419;-81
2021/08/03 11:07:26;;;;;;;5.97;3.80;;;21.70;89.50;;;;;;5038359;28;20435;-81
2021/08/03 11:09:53;;;;;;;3.70;3.00;;;21.70;89.20;;;;;;5047072;28;20434;-81
2021/08/03 11:12:36;;;;;;;4.63;3.50;;;21.60;89.00;;;;;;5057074;28;20445;-81
2021/08/03 11:15:26;;;;;;;6.77;4.00;;;21.70;89.10;;;;;;5047222;28;20452;-81
2021/08/03 11:18:01;;;;;;;4.57;3.30;;;21.70;89.30;;;;;;5070705;28;20482;-81
2021/08/03 11:20:36;;;;;;;4.37;3.20;;;21.80;90.00;;;;;;5041277;28;20991;-81
2021/08/03 11:23:04;;;;;;;3.87;3.70;;;21.90;88.60;;;;;;5037855;28;20474;-81
2021/08/03 11:25:30;;;;;;;5.27;3.00;;;22.00;88.80;;;;;;5038913;28;20440;-81
2021/08/03 11:28:06;;;;;;;5.70;3.67;;;22.00;88.70;;;;;;5039221;28;20481;-81
2021/08/03 11:30:32;;;;;;;4.17;3.30;;;22.10;89.10;;;;;;5042288;28;20418;-81
2021/08/03 11:32:57;;;;;;;6.10;3.37;;;22.20;90.20;;;;;;5038215;28;20457;-81
2021/08/03 11:35:28;;;;;;;3.80;3.20;;;22.20;88.10;;;;;;5040213;28;20180;-81
2021/08/03 11:37:54;;;;;;;6.63;4.20;;;22.20;88.70;;;;;;5036034;28;20491;-81
2021/08/03 11:40:20;;;;;;;6.33;3.10;;;22.10;88.30;;;;;;5050522;28;20436;-81
2021/08/03 11:42:46;;;;;;;7.53;4.10;;;22.00;88.70;;;;;;5042351;28;20188;-81
2021/08/03 11:45:17;;;;;;;5.10;3.70;;;22.00;90.90;;;;;;5047245;28;20427;-81
2021/08/03 11:47:47;;;;;;;4.30;3.60;;;22.00;89.30;;;;;;5038515;28;20430;-81
2021/08/03 11:50:30;;;;;;;3.83;3.30;;;21.90;87.90;;;;;;5049469;28;20418;-82
2021/08/03 11:53:07;;;;;;;3.50;3.30;;;21.90;89.90;;;;;;5053032;28;20450;-82
2021/08/03 11:55:38;;;;;;;4.97;3.47;;;21.90;90.00;;;;;;5054358;28;20505;-82
2021/08/03 11:58:05;;;;;;;5.23;3.30;;;22.00;90.40;;;;;;5044891;28;20826;-82
2021/08/03 12:00:31;;;;;;;5.73;3.80;;;22.00;90.00;;;;;;5037531;28;20411;-81
2021/08/03 12:02:59;;;;;;;4.10;3.37;;;22.10;89.80;;;;;;5055198;28;20441;-82
2021/08/03 12:05:35;;;;;;;5.20;3.90;;;22.20;90.10;;;;;;5037564;28;20446;-81
2021/08/03 12:08:07;;;;;;;3.97;3.50;;;22.30;89.50;;;;;;5036227;28;20415;-81
2021/08/03 12:10:39;;;;;;;5.20;3.57;;;22.40;87.50;;;;;;5051949;28;20454;-81
2021/08/03 12:13:06;;;;;;;3.60;3.13;;;22.40;87.30;;;;;;5057031;28;20446;-81
2021/08/03 12:15:48;;;;;;;7.27;4.43;;;22.40;88.90;;;;;;5043164;28;20453;-81
2021/08/03 12:18:14;;;;;;;6.53;3.73;;;22.40;87.30;;;;;;5048679;28;20489;-82
2021/08/03 12:20:57;;;;;;;5.27;3.70;;;22.40;86.40;;;;;;5046941;28;20415;-81
2021/08/03 12:23:27;;;;;;;6.13;3.30;;;22.50;86.90;;;;;;5049040;28;20450;-81
2021/08/03 12:25:57;;;;;;;4.40;3.10;;;22.60;87.60;;;;;;5040721;28;20529;-81
2021/08/03 12:28:31;;;;;;;6.00;3.40;;;22.70;87.50;;;;;;5036486;28;20431;-81
2021/08/03 12:31:00;;;;;;;6.50;3.47;;;22.90;88.70;;;;;;5035956;28;20415;-81
2021/08/03 12:33:31;;;;;;;3.30;2.90;;;22.80;85.10;;;;;;5036169;28;20423;-81
2021/08/03 12:36:05;;;;;;;4.87;3.40;;;22.80;85.30;;;;;;5037842;28;20417;-81
2021/08/03 12:38:31;;;;;;;4.17;2.83;;;22.80;84.30;;;;;;5043331;28;20688;-81
2021/08/03 12:40:56;;;;;;;3.53;3.33;;;22.90;85.10;;;;;;5055953;28;20422;-81
2021/08/03 12:43:41;;;;;;;3.77;3.37;;;23.00;85.30;;;;;;5056116;28;20421;-81
2021/08/03 12:46:07;;;;;;;5.03;3.77;;;23.10;85.90;;;;;;5056343;28;20171;-81
2021/08/03 12:48:34;;;;;;;5.87;3.60;;;23.30;86.20;;;;;;5058116;28;20448;-81
2021/08/03 12:51:03;;;;;;;4.50;3.00;;;23.40;84.20;;;;;;5040787;28;20480;-81
2021/08/03 12:53:30;;;;;;;3.77;2.93;;;23.50;85.10;;;;;;5055067;28;20476;-81
2021/08/03 12:56:15;;;;;;;5.53;3.80;;;23.60;84.90;;;;;;5044140;28;20418;-81
2021/08/03 12:58:43;;;;;;;4.40;3.83;;;23.70;83.70;;;;;;5057607;28;20983;-81
2021/08/03 13:01:15;;;;;;;4.40;3.53;;;23.80;86.10;;;;;;5056092;28;20448;-81